Time;durP1;ratioP1;P1;durP2;ratioP2;P2;SDS_P1;SDS_P2;PMS_P1;PMS_P2;Temp;Humidity;BMP_temperature;BMP_pressure;BME280_temperature;BME280_humidity;BME280_pressure;Samples;Min_cycle;Max_cycle;Signal;HPM_P1;HPM_P2
2022/08/12 00:43:26;;;;;;;;;30.00;27.75;;;;;25.72;32.54;101255.13;6341739;22;45294;-78
2022/08/12 00:48:38;;;;;;;;;17.00;16.50;;;;;25.56;32.07;101245.34;6341682;22;45371;-77
2022/08/12 00:51:05;;;;;;;;;17.50;17.50;;;;;25.52;32.72;101252.72;6313331;22;45652;-78
2022/08/12 00:53:31;;;;;;;;;16.00;15.00;;;;;25.47;32.27;101255.72;6341571;22;45268;-77
2022/08/12 00:55:58;;;;;;;;;19.50;17.25;;;;;25.41;32.52;101247.09;6341401;22;45223;-77
2022/08/12 00:58:27;;;;;;;;;18.00;18.00;;;;;25.38;32.74;101249.97;6341527;22;46239;-78
2022/08/12 01:00:59;;;;;;;;;16.75;16.25;;;;;25.34;32.80;101251.09;6341192;22;45169;-78
2022/08/12 01:03:26;;;;;;;;;17.75;17.25;;;;;25.26;32.63;101244.34;6341894;22;45365;-77
2022/08/12 01:11:27;;;;;;;;;29.25;27.00;;;;;25.17;33.29;101246.69;6341212;22;45106;-77
2022/08/12 01:13:55;;;;;;;;;18.75;18.75;;;;;25.13;33.56;101242.38;6338182;22;45358;-78
2022/08/12 01:16:21;;;;;;;;;16.75;16.50;;;;;25.12;33.39;101243.34;6339735;22;45454;-78
2022/08/12 01:18:50;;;;;;;;;16.75;16.00;;;;;25.04;33.35;101233.84;6341622;22;45970;-78
2022/08/12 01:21:37;;;;;;;;;20.00;18.75;;;;;25.02;33.41;101251.06;6313393;22;45251;-77
2022/08/12 01:24:26;;;;;;;;;17.75;17.75;;;;;24.94;33.84;101246.13;6313405;22;45313;-77
2022/08/12 01:26:54;;;;;;;;;16.75;16.75;;;;;24.81;33.93;101240.56;6322143;22;45384;-77
2022/08/12 01:29:27;;;;;;;;;18.50;17.75;;;;;24.79;33.43;101253.22;6313400;22;46256;-78
2022/08/12 01:31:57;;;;;;;;;16.50;16.50;;;;;24.70;33.93;101247.47;6341799;22;45109;-78
2022/08/12 01:34:30;;;;;;;;;15.25;15.25;;;;;24.65;34.10;101256.69;6341653;22;45405;-78
2022/08/12 01:36:58;;;;;;;;;14.50;14.50;;;;;24.57;33.54;101248.16;6342445;22;45247;-79
2022/08/12 01:39:46;;;;;;;;;20.00;17.50;;;;;24.53;34.22;101245.69;6341784;22;45448;-78
2022/08/12 01:42:14;;;;;;;;;17.50;17.50;;;;;24.50;33.97;101240.50;6314109;22;45501;-78
2022/08/12 01:44:40;;;;;;;;;22.50;22.25;;;;;24.46;34.12;101246.97;6342704;22;45150;-78
2022/08/12 01:47:29;;;;;;;;;48.50;38.25;;;;;24.46;34.17;101246.97;6342475;22;45106;-78
2022/08/12 01:50:45;;;;;;;;;25.50;24.50;;;;;24.40;34.17;101246.34;6313560;22;48196;-77
2022/08/12 01:53:14;;;;;;;;;20.75;20.00;;;;;24.38;34.54;101244.69;6286199;22;45426;-78
2022/08/12 01:55:46;;;;;;;;;18.75;15.25;;;;;24.35;34.05;101242.13;6312966;22;45189;-77
2022/08/12 01:58:24;;;;;;;;;17.00;15.75;;;;;24.31;34.38;101243.28;6313278;22;45568;-76
2022/08/12 02:00:59;;;;;;;;;15.75;15.75;;;;;24.30;35.17;101238.81;6341254;22;45221;-78
2022/08/12 02:12:48;;;;;;;;;17.50;17.50;;;;;24.28;34.56;101227.28;6340909;22;45239;-77
2022/08/12 02:15:52;;;;;;;;;16.25;15.25;;;;;24.31;34.90;101230.66;6312716;22;45268;-78
2022/08/12 02:18:25;;;;;;;;;19.75;17.50;;;;;24.30;34.83;101236.13;6313065;22;45359;-76
2022/08/12 02:20:59;;;;;;;;;17.50;16.50;;;;;24.29;34.77;101226.31;6340591;22;45349;-77
2022/08/12 02:23:26;;;;;;;;;14.50;13.50;;;;;24.27;34.79;101214.75;6340924;22;45316;-76
2022/08/12 02:25:55;;;;;;;;;14.50;14.50;;;;;24.21;34.66;101207.88;6339063;22;45990;-78
2022/08/12 02:28:21;;;;;;;;;17.50;16.75;;;;;24.26;35.38;101221.09;6340909;22;45179;-77
2022/08/12 02:30:46;;;;;;;;;18.00;17.25;;;;;24.24;35.38;101217.63;6312163;22;45560;-76
2022/08/12 02:33:12;;;;;;;;;16.50;13.50;;;;;24.23;35.14;101216.75;6338933;22;48114;-78
2022/08/12 02:35:38;;;;;;;;;18.00;16.00;;;;;24.20;35.50;101217.78;6339095;22;45721;-78
2022/08/12 02:38:08;;;;;;;;;19.75;19.50;;;;;24.18;35.27;101210.75;6341003;22;45408;-78
2022/08/12 02:40:39;;;;;;;;;15.50;15.50;;;;;24.20;34.92;101223.19;6338760;22;45253;-77
2022/08/12 02:43:13;;;;;;;;;18.00;16.25;;;;;24.19;35.35;101218.75;6312470;22;48627;-77
2022/08/12 02:45:57;;;;;;;;;17.00;16.50;;;;;24.16;35.71;101218.94;6312614;22;45925;-77
2022/08/12 02:48:49;;;;;;;;;20.50;17.50;;;;;24.15;35.73;101224.38;6341054;22;45345;-77
2022/08/12 02:51:22;;;;;;;;;18.50;18.50;;;;;24.08;35.62;101217.56;6340610;22;45406;-77
2022/08/12 02:53:49;;;;;;;;;18.00;17.50;;;;;24.08;35.75;101218.44;6312331;22;46377;-77
2022/08/12 02:56:17;;;;;;;;;21.00;19.00;;;;;24.07;36.34;101226.59;6312441;22;45178;-77
2022/08/12 02:58:45;;;;;;;;;18.50;18.00;;;;;24.00;35.86;101217.97;6340811;22;45160;-76
2022/08/12 03:01:12;;;;;;;;;18.25;17.25;;;;;23.91;35.90;101213.94;6311588;22;45349;-77
2022/08/12 03:03:39;;;;;;;;;18.50;17.75;;;;;23.87;36.36;101222.25;6312558;22;48053;-78
2022/08/12 03:06:11;;;;;;;;;16.00;16.00;;;;;23.77;36.55;101216.50;6312467;22;45199;-76
2022/08/12 03:08:42;;;;;;;;;17.25;16.25;;;;;23.74;36.29;101232.78;6312333;22;45306;-77
2022/08/12 03:11:24;;;;;;;;;14.50;14.00;;;;;23.56;36.89;101213.03;6312325;22;45885;-77
2022/08/12 03:13:54;;;;;;;;;19.25;15.00;;;;;23.47;36.55;101221.53;6340038;22;45200;-77
2022/08/12 03:16:20;;;;;;;;;16.75;16.50;;;;;23.42;37.10;101227.16;6313077;22;45308;-77
2022/08/12 03:18:48;;;;;;;;;20.00;19.50;;;;;23.33;37.15;101219.53;6340582;22;45298;-77
2022/08/12 03:21:15;;;;;;;;;17.25;17.00;;;;;23.29;37.30;101221.53;6338736;22;45484;-77
2022/08/12 03:23:44;;;;;;;;;14.00;14.00;;;;;23.23;37.65;101221.84;6312176;22;47527;-77
2022/08/12 03:26:10;;;;;;;;;15.75;15.75;;;;;23.21;37.32;101226.41;6311682;22;45315;-76
2022/08/12 03:28:52;;;;;;;;;11.00;11.00;;;;;23.17;37.51;101232.84;6340806;22;45388;-77
2022/08/12 03:31:28;;;;;;;;;15.50;15.50;;;;;23.08;37.40;101236.00;6340344;22;45342;-77
2022/08/12 03:33:58;;;;;;;;;17.75;15.00;;;;;22.96;37.68;101229.41;6341927;22;46466;-77
2022/08/12 03:36:26;;;;;;;;;18.50;18.50;;;;;22.90;37.48;101233.19;6313728;22;45180;-77
2022/08/12 03:39:20;;;;;;;;;16.00;16.00;;;;;22.80;37.82;101222.97;6314342;22;45209;-77
2022/08/12 03:41:53;;;;;;;;;17.50;17.50;;;;;22.75;37.48;101228.56;6341487;22;46100;-76
2022/08/12 04:01:09;;;;;;;;;17.50;16.25;;;;;22.65;37.94;101222.75;6341421;22;45251;-77
2022/08/12 04:03:51;;;;;;;;;15.00;13.50;;;;;22.65;38.34;101211.16;6342172;22;45085;-77
2022/08/12 04:06:21;;;;;;;;;15.25;15.25;;;;;22.65;38.14;101216.53;6313303;22;47921;-77
2022/08/12 04:08:50;;;;;;;;;14.00;14.00;;;;;22.67;38.79;101225.38;6341554;22;45185;-77
2022/08/12 04:14:10;;;;;;;;;14.00;14.00;;;;;22.64;38.72;101218.34;6341306;22;45369;-77
2022/08/12 04:16:37;;;;;;;;;16.75;16.75;;;;;22.60;38.60;101216.72;6341456;22;45909;-77
2022/08/12 04:19:03;;;;;;;;;19.00;15.75;;;;;22.60;38.57;101221.22;6341752;22;45294;-76
2022/08/12 04:21:31;;;;;;;;;19.25;16.00;;;;;22.59;38.96;101217.69;6313712;22;45199;-77
2022/08/12 04:23:58;;;;;;;;;14.00;14.00;;;;;22.51;38.89;101214.47;6313890;22;45448;-77
2022/08/12 04:26:24;;;;;;;;;18.00;17.00;;;;;22.53;39.12;101217.06;6339190;22;47094;-77
2022/08/12 04:28:49;;;;;;;;;16.75;16.50;;;;;22.50;38.83;101215.41;6341750;22;45344;-78
2022/08/12 04:31:15;;;;;;;;;15.25;15.25;;;;;22.48;38.84;101213.72;6341935;22;45874;-77
2022/08/12 04:33:42;;;;;;;;;17.25;17.25;;;;;22.46;38.99;101220.06;6341831;22;45377;-78
2022/08/12 04:36:08;;;;;;;;;18.00;18.00;;;;;22.46;38.90;101220.06;6313524;22;45720;-78
2022/08/12 04:38:35;;;;;;;;;17.00;17.00;;;;;22.44;39.08;101219.25;6341630;22;45184;-76
2022/08/12 04:41:02;;;;;;;;;18.75;16.75;;;;;22.48;39.12;101225.38;6341848;22;45227;-77
2022/08/12 04:43:28;;;;;;;;;16.75;16.25;;;;;22.42;39.42;101222.94;6313610;22;45389;-77
2022/08/12 04:45:54;;;;;;;;;19.00;19.00;;;;;22.37;38.88;101206.19;6312825;22;47044;-78
2022/08/12 04:48:19;;;;;;;;;18.25;16.25;;;;;22.37;39.32;101220.47;6341677;22;45262;-77
2022/08/12 04:50:45;;;;;;;;;17.50;17.00;;;;;22.34;39.64;101209.88;6342290;22;45470;-78
2022/08/12 04:53:12;;;;;;;;;16.00;16.00;;;;;22.32;39.57;101217.13;6341485;22;45389;-78
2022/08/12 04:55:39;;;;;;;;;15.00;14.75;;;;;22.31;39.84;101225.25;6341682;22;45368;-78
2022/08/12 04:58:06;;;;;;;;;16.00;16.00;;;;;22.27;39.74;101232.56;6341578;22;45268;-77
2022/08/12 05:00:32;;;;;;;;;15.75;15.00;;;;;22.23;40.08;101222.91;6334291;22;45429;-77
2022/08/12 05:02:58;;;;;;;;;15.50;15.50;;;;;22.19;40.04;101219.50;6334540;22;45448;-77
2022/08/12 05:05:24;;;;;;;;;14.00;14.00;;;;;22.23;40.01;101226.44;6309899;22;45525;-77
2022/08/12 05:07:50;;;;;;;;;17.25;16.25;;;;;22.20;40.21;101228.41;6310019;22;45325;-77
2022/08/12 05:10:17;;;;;;;;;19.00;16.25;;;;;22.13;40.38;101224.22;6308108;22;45314;-77
2022/08/12 05:12:46;;;;;;;;;18.25;16.25;;;;;22.16;40.35;101224.97;6310005;22;45468;-78
2022/08/12 05:15:15;;;;;;;;;19.00;17.25;;;;;22.14;40.51;101226.84;6307945;22;47043;-78
2022/08/12 05:17:41;;;;;;;;;18.00;16.00;;;;;22.16;40.42;101232.09;6307275;22;45584;-76
2022/08/12 05:20:09;;;;;;;;;19.00;18.00;;;;;22.17;40.32;101233.88;6310024;22;45399;-78
2022/08/12 05:22:36;;;;;;;;;14.75;14.75;;;;;22.10;40.62;101233.25;6307843;22;45342;-77
2022/08/12 05:25:01;;;;;;;;;17.25;17.25;;;;;22.09;40.71;101238.72;6307466;22;48232;-77
2022/08/12 05:27:27;;;;;;;;;18.00;17.00;;;;;22.02;40.74;101232.72;6334627;22;45246;-77
2022/08/12 05:29:52;;;;;;;;;16.25;16.25;;;;;22.06;40.72;101246.88;6308286;22;45259;-77
2022/08/12 05:32:19;;;;;;;;;17.50;17.50;;;;;22.02;40.71;101246.13;6310690;22;45218;-77
2022/08/12 05:34:48;;;;;;;;;18.25;17.25;;;;;21.99;40.57;101238.22;6308127;22;46902;-76
2022/08/12 05:37:15;;;;;;;;;19.00;17.75;;;;;21.96;40.59;101233.88;6307964;22;45248;-77
2022/08/12 05:39:41;;;;;;;;;16.75;15.50;;;;;22.01;40.57;101233.66;6309583;22;45433;-76
2022/08/12 05:42:08;;;;;;;;;17.75;17.00;;;;;22.07;40.36;101240.56;6310309;22;45156;-77
2022/08/12 05:44:33;;;;;;;;;16.25;15.25;;;;;22.08;40.47;101240.53;6309900;22;45322;-75
2022/08/12 05:46:59;;;;;;;;;15.00;14.50;;;;;22.06;40.40;101244.22;6310061;22;45213;-75
2022/08/12 05:49:24;;;;;;;;;17.00;16.00;;;;;22.09;40.19;101252.97;6308005;22;45369;-75
2022/08/12 05:51:50;;;;;;;;;14.25;14.25;;;;;22.07;40.65;101249.47;6307479;22;45319;-77
2022/08/12 05:54:17;;;;;;;;;15.25;15.25;;;;;22.07;40.76;101257.53;6307416;22;46871;-76
2022/08/12 05:56:44;;;;;;;;;18.25;17.75;;;;;22.08;40.72;101248.56;6309307;22;45457;-75
2022/08/12 05:59:10;;;;;;;;;18.00;18.00;;;;;22.14;40.53;101250.97;6312296;22;45274;-77
2022/08/12 06:01:36;;;;;;;;;17.00;16.50;;;;;22.18;40.52;101259.75;6341487;22;45416;-78
2022/08/12 06:04:03;;;;;;;;;17.50;17.25;;;;;22.22;40.89;101251.53;6341121;22;47587;-78
2022/08/12 06:06:34;;;;;;;;;14.50;14.50;;;;;22.29;40.64;101246.75;6338737;22;45923;-77
2022/08/12 06:09:00;;;;;;;;;18.25;16.00;;;;;22.36;40.53;101250.91;6312478;22;45378;-77
2022/08/12 06:11:25;;;;;;;;;18.75;18.75;;;;;22.44;40.59;101245.22;6312956;22;45463;-75
2022/08/12 06:13:57;;;;;;;;;18.25;17.25;;;;;22.51;40.23;101248.47;6339128;22;46953;-77
2022/08/12 06:16:24;;;;;;;;;15.00;14.50;;;;;22.57;40.57;101256.25;6313009;22;45433;-76
2022/08/12 06:18:50;;;;;;;;;17.25;15.75;;;;;22.61;40.55;101249.81;6312995;22;45187;-77
2022/08/12 06:21:20;;;;;;;;;17.50;15.50;;;;;22.66;40.58;101254.00;6338982;22;45259;-77
2022/08/12 06:23:46;;;;;;;;;15.50;15.50;;;;;22.73;40.61;101256.44;6339327;22;47322;-77
2022/08/12 06:26:14;;;;;;;;;22.50;20.00;;;;;22.77;40.57;101249.97;6340963;22;45338;-75
2022/08/12 06:28:41;;;;;;;;;20.75;20.00;;;;;22.84;40.35;101251.44;6312999;22;45188;-77
2022/08/12 06:31:07;;;;;;;;;19.00;18.75;;;;;22.88;39.81;101242.28;6341060;22;45173;-77
2022/08/12 06:33:33;;;;;;;;;17.25;17.25;;;;;22.94;39.74;101246.50;6312759;22;46185;-77
2022/08/12 06:36:00;;;;;;;;;17.25;17.25;;;;;22.97;39.67;101236.50;6341244;22;45454;-78
2022/08/12 06:38:27;;;;;;;;;16.00;15.25;;;;;23.06;39.46;101249.50;6312960;22;45382;-78
2022/08/12 06:43:40;;;;;;;;;14.00;13.50;;;;;23.14;38.90;101240.19;6341077;22;45302;-78
2022/08/12 06:46:05;;;;;;;;;17.50;17.00;;;;;23.23;38.92;101250.50;6341527;22;45278;-80
2022/08/12 06:48:31;;;;;;;;;18.75;17.00;;;;;23.25;39.35;101244.09;6341863;22;45187;-77
2022/08/12 06:50:58;;;;;;;;;17.25;17.25;;;;;23.36;38.90;101254.31;6341077;22;45175;-79
2022/08/12 06:53:25;;;;;;;;;15.75;14.25;;;;;23.38;38.69;101246.19;6340717;22;45302;-79
2022/08/12 06:55:53;;;;;;;;;17.25;15.75;;;;;23.49;38.33;101262.66;6341028;22;45280;-79
2022/08/12 06:58:20;;;;;;;;;13.25;13.25;;;;;23.51;38.21;101248.19;6313938;22;45267;-79
2022/08/12 07:00:49;;;;;;;;;11.00;11.00;;;;;23.64;37.88;101245.78;6312880;22;45526;-79
2022/08/12 07:03:28;;;;;;;;;17.00;16.00;;;;;23.71;37.46;101247.25;6341162;22;45876;-78
2022/08/12 07:05:55;;;;;;;;;19.00;17.25;;;;;23.82;36.82;101246.69;6338910;22;46127;-78
2022/08/12 07:08:26;;;;;;;;;13.50;13.00;;;;;23.92;36.72;101249.78;6313738;22;45417;-78
2022/08/12 07:10:58;;;;;;;;;15.25;15.00;;;;;23.98;36.39;101250.34;6340389;22;45416;-79
2022/08/12 07:13:25;;;;;;;;;12.50;12.50;;;;;24.07;35.89;101251.66;6343273;22;45485;-79
2022/08/12 07:15:54;;;;;;;;;12.00;12.00;;;;;24.12;35.85;101241.53;6314086;22;45287;-78
2022/08/12 07:18:19;;;;;;;;;16.50;14.75;;;;;24.21;35.88;101240.19;6313935;22;45239;-77
2022/08/12 07:20:47;;;;;;;;;15.25;14.25;;;;;24.33;35.50;101236.00;6314182;22;45895;-79
2022/08/12 07:23:14;;;;;;;;;13.50;13.25;;;;;24.40;35.54;101240.97;6342434;22;45322;-79
2022/08/12 07:25:41;;;;;;;;;15.50;12.75;;;;;24.45;35.19;101238.03;6342203;22;45353;-78
2022/08/12 07:28:09;;;;;;;;;13.50;13.50;;;;;24.53;35.33;101233.09;6313770;22;45428;-80
2022/08/12 07:30:38;;;;;;;;;14.00;13.75;;;;;24.61;35.18;101227.31;6341824;22;45181;-77
2022/08/12 07:33:04;;;;;;;;;13.25;11.50;;;;;24.68;34.74;101226.03;6343238;22;45550;-85
2022/08/12 07:35:31;;;;;;;;;13.75;12.75;;;;;24.82;34.68;101230.66;6314453;22;45283;-78
2022/08/12 07:37:59;;;;;;;;;10.75;10.50;;;;;24.94;34.19;101238.06;6342170;22;45270;-77
2022/08/12 07:40:51;;;;;;;;;12.00;11.25;;;;;25.03;34.46;101231.28;6347928;22;45461;-87
2022/08/12 07:47:21;;;;;;;;;9.50;9.50;;;;;25.26;33.80;101217.38;6279275;22;45531;-85
2022/08/12 07:50:07;;;;;;;;;;;;;;;;;;;;;
2022/08/12 07:52:41;;;;;;;;;10.00;9.00;;;;;25.62;32.92;101229.66;6340115;22;71737;-84
2022/08/12 07:55:12;;;;;;;;;11.75;11.75;;;;;25.70;32.45;101210.34;6341224;22;45663;-84
2022/08/12 07:57:56;;;;;;;;;12.00;11.00;;;;;25.87;31.85;101215.59;6313733;22;45261;-84
2022/08/12 08:00:22;;;;;;;;;9.75;9.75;;;;;26.07;31.95;101221.66;6339876;22;45239;-84
2022/08/12 08:02:48;;;;;;;;;13.50;12.00;;;;;26.16;31.78;101213.81;6339762;22;45453;-78
2022/08/12 08:05:15;;;;;;;;;14.25;12.75;;;;;26.33;31.35;101220.00;6341909;22;46254;-87
2022/08/12 08:07:41;;;;;;;;;9.25;9.25;;;;;26.43;30.97;101214.91;6342329;22;45500;-83
2022/08/12 08:10:09;;;;;;;;;11.25;11.25;;;;;26.55;31.30;101206.94;6339784;22;45476;-82
2022/08/12 08:12:54;;;;;;;;;11.00;11.00;;;;;26.71;30.63;101214.09;6341413;22;45167;-82
2022/08/12 08:15:35;;;;;;;;;11.25;10.00;;;;;26.89;30.36;101223.72;6312931;22;48115;-81
2022/08/12 08:18:04;;;;;;;;;9.00;9.00;;;;;27.01;30.34;101227.44;6341418;22;45461;-81
2022/08/12 08:20:42;;;;;;;;;11.75;11.75;;;;;27.14;30.18;101216.69;6340537;22;45248;-81
2022/08/12 08:23:16;;;;;;;;;11.50;10.25;;;;;27.28;29.82;101216.69;6338924;22;45251;-81
2022/08/12 08:25:45;;;;;;;;;9.00;9.00;;;;;27.48;29.51;101227.03;6340771;22;45766;-83
2022/08/12 08:28:15;;;;;;;;;12.25;12.25;;;;;27.66;29.36;101237.56;6313926;22;45299;-84
2022/08/12 08:30:43;;;;;;;;;11.00;10.75;;;;;27.76;29.07;101225.16;6343129;22;45117;-85
2022/08/12 08:33:10;;;;;;;;;11.50;10.50;;;;;27.91;28.68;101220.59;6313766;22;45408;-86
2022/08/12 08:35:38;;;;;;;;;11.25;11.00;;;;;28.11;28.30;101228.16;6313798;22;48219;-85
2022/08/12 08:38:08;;;;;;;;;10.00;10.00;;;;;28.28;28.06;101215.28;6313493;22;45175;-83
2022/08/12 08:43:33;;;;;;;;;9.50;9.25;;;;;28.50;27.58;101203.84;6341566;22;45455;-84
2022/08/12 08:46:00;;;;;;;;;9.50;9.50;;;;;28.63;27.73;101215.53;6339212;22;48017;-84
2022/08/12 08:48:29;;;;;;;;;8.50;8.50;;;;;28.76;27.22;101213.66;6341893;22;45208;-85
2022/08/12 08:50:55;;;;;;;;;8.75;8.75;;;;;28.92;27.09;101231.47;6312540;22;45180;-85
2022/08/12 08:53:20;;;;;;;;;6.75;6.75;;;;;29.03;27.13;101227.03;6313804;22;45476;-86
2022/08/12 08:55:49;;;;;;;;;9.75;8.75;;;;;29.14;26.46;101222.69;6339980;22;47415;-84
2022/08/12 08:58:14;;;;;;;;;8.50;8.25;;;;;29.22;26.18;101217.56;6313478;22;45597;-87
2022/08/12 09:00:40;;;;;;;;;8.50;8.50;;;;;29.29;25.92;101216.09;6342375;22;45569;-88
2022/08/12 09:03:06;;;;;;;;;9.00;8.00;;;;;29.40;25.73;101218.00;6314627;22;45528;-83
2022/08/12 09:05:33;;;;;;;;;7.75;7.75;;;;;29.54;26.10;101217.84;6341563;22;45985;-83
2022/08/12 09:08:04;;;;;;;;;9.50;8.25;;;;;29.60;25.84;101213.78;6342956;22;45318;-86
2022/08/12 09:10:29;;;;;;;;;9.00;8.25;;;;;29.73;25.58;101220.03;6342199;22;45302;-86
2022/08/12 09:15:40;;;;;;;;;9.75;7.25;;;;;29.90;24.78;101210.56;6341907;22;45737;-81
2022/08/12 09:18:07;;;;;;;;;8.00;8.00;;;;;29.97;24.94;101216.41;6335155;22;45300;-80
2022/08/12 09:20:34;;;;;;;;;8.25;7.50;;;;;30.05;24.46;101211.25;6310545;22;45342;-81
2022/08/12 09:23:02;;;;;;;;;7.50;7.25;;;;;30.14;24.78;101204.22;6309881;22;45716;-82
2022/08/12 09:25:30;;;;;;;;;9.75;8.75;;;;;30.25;24.88;101206.97;6339268;22;45655;-79
2022/08/12 09:27:57;;;;;;;;;7.75;7.75;;;;;30.33;24.16;101199.06;6336573;22;45664;-80
2022/08/12 09:30:23;;;;;;;;;9.00;7.50;;;;;30.42;24.20;101209.22;6311861;22;45417;-78
2022/08/12 09:32:50;;;;;;;;;6.75;6.75;;;;;30.49;23.56;101205.00;6339840;22;45464;-80
2022/08/12 09:35:22;;;;;;;;;7.75;6.50;;;;;30.59;23.86;101198.84;6337409;22;47157;-79
2022/08/12 09:37:49;;;;;;;;;8.00;8.00;;;;;30.66;23.73;101206.38;6338223;22;45833;-78
2022/08/12 09:40:15;;;;;;;;;6.50;6.25;;;;;30.75;23.80;101193.88;6339052;22;45417;-78
2022/08/12 09:45:26;;;;;;;;;5.25;5.25;;;;;30.91;23.21;101198.97;6340393;22;45421;-77
2022/08/12 09:47:53;;;;;;;;;6.75;6.75;;;;;30.98;22.69;101192.00;6343752;22;45635;-82
2022/08/12 09:50:19;;;;;;;;;7.25;7.25;;;;;31.03;22.83;101192.47;6314938;22;45385;-79
2022/08/12 09:52:45;;;;;;;;;7.00;6.25;;;;;31.08;22.24;101192.97;6341990;22;45236;-80
2022/08/12 09:55:13;;;;;;;;;6.00;6.00;;;;;31.12;22.77;101188.16;6314871;22;45291;-79
2022/08/12 09:57:38;;;;;;;;;7.75;7.75;;;;;31.19;22.67;101189.34;6343421;22;45502;-78
2022/08/12 10:00:10;;;;;;;;;9.00;9.00;;;;;31.26;22.82;101182.41;6341143;22;45378;-79
2022/08/12 10:02:37;;;;;;;;;7.50;7.50;;;;;31.33;22.60;101185.47;6344308;22;45292;-79
2022/08/12 10:05:04;;;;;;;;;8.50;8.50;;;;;31.43;21.83;101183.72;6343241;22;45366;-79
2022/08/12 10:07:29;;;;;;;;;7.75;7.00;;;;;31.52;22.34;101185.69;6314768;22;45365;-78
2022/08/12 10:09:54;;;;;;;;;6.25;6.25;;;;;31.59;22.37;101172.41;6314110;22;45430;-80
2022/08/12 10:15:04;;;;;;;;;7.25;5.25;;;;;31.88;21.74;101172.59;6340833;22;45420;-80
2022/08/12 10:17:30;;;;;;;;;6.25;6.25;;;;;31.97;21.97;101165.50;6311838;22;45365;-77
2022/08/12 10:19:55;;;;;;;;;6.00;6.00;;;;;32.09;21.89;101161.72;6310722;22;45334;-80
2022/08/12 10:22:20;;;;;;;;;7.00;7.00;;;;;32.29;21.48;101159.94;6338911;22;45969;-79
2022/08/12 10:29:35;;;;;;;;;5.75;5.00;;;;;32.41;21.13;101152.56;6310478;22;47376;-78
2022/08/12 10:30:16;;;;;;;;;6.00;6.00;;;;;32.75;20.32;101144.09;6341015;22;45360;-81
2022/08/12 10:32:42;;;;;;;;;8.00;8.00;;;;;32.87;20.21;101148.41;6337831;22;45515;-81
2022/08/12 10:35:08;;;;;;;;;4.00;4.00;;;;;33.00;20.22;101140.81;6342533;22;45298;-81
2022/08/12 10:37:34;;;;;;;;;6.50;5.50;;;;;33.15;20.32;101139.44;6311601;22;45280;-81
2022/08/12 10:39:59;;;;;;;;;7.50;6.25;;;;;33.34;20.08;101143.16;6339731;22;45384;-80
2022/08/12 10:45:09;;;;;;;;;4.50;4.50;;;;;33.68;19.65;101131.78;6343855;22;45263;-81
2022/08/12 10:47:36;;;;;;;;;6.00;6.00;;;;;33.80;19.62;101134.22;6340493;22;45298;-79
2022/08/12 10:50:04;;;;;;;;;7.00;6.50;;;;;33.95;19.32;101142.81;6313704;22;45365;-80
2022/08/12 10:52:30;;;;;;;;;4.00;4.00;;;;;34.00;19.38;101134.16;6341856;22;45369;-77
2022/08/12 10:54:57;;;;;;;;;5.75;4.75;;;;;34.06;19.21;101130.88;6342467;22;45215;-78
2022/08/12 10:57:25;;;;;;;;;4.00;4.00;;;;;34.17;19.49;101129.81;6338256;22;45583;-78
2022/08/12 10:59:55;;;;;;;;;5.25;5.25;;;;;34.27;19.00;101130.66;6342377;22;45247;-79
2022/08/12 11:02:26;;;;;;;;;5.00;5.00;;;;;34.26;19.03;101115.25;6313398;22;45364;-80
2022/08/12 11:04:56;;;;;;;;;58.50;47.50;;;;;34.33;19.17;101120.97;6312655;22;47057;-80
2022/08/12 11:07:25;;;;;;;;;5.00;5.00;;;;;34.38;19.13;101113.19;6312741;22;45369;-80
2022/08/12 11:09:51;;;;;;;;;67.75;55.50;;;;;34.49;19.03;101115.72;6341525;22;45223;-82
2022/08/12 11:12:17;;;;;;;;;8.00;6.50;;;;;34.64;18.93;101110.59;6341506;22;45215;-80
2022/08/12 11:14:43;;;;;;;;;10.50;10.25;;;;;34.78;18.58;101109.22;6312951;22;47295;-80
2022/08/12 11:17:11;;;;;;;;;7.50;7.50;;;;;34.95;18.50;101113.00;6341741;22;45354;-80
2022/08/12 11:19:39;;;;;;;;;7.75;7.25;;;;;35.09;18.49;101107.00;6341548;22;45380;-80
2022/08/12 11:22:06;;;;;;;;;8.00;8.00;;;;;35.22;18.12;101101.97;6313117;22;45480;-80
2022/08/12 11:24:32;;;;;;;;;7.25;7.25;;;;;35.37;18.40;101105.03;6341353;22;45456;-80
2022/08/12 11:27:00;;;;;;;;;8.50;7.75;;;;;35.52;18.34;101094.34;6341479;22;45149;-81
2022/08/12 11:29:26;;;;;;;;;8.00;7.00;;;;;35.63;18.17;101085.88;6339499;22;45284;-80
2022/08/12 11:31:53;;;;;;;;;8.00;8.00;;;;;35.70;17.78;101088.84;6313358;22;45236;-80
2022/08/12 11:34:19;;;;;;;;;5.50;5.50;;;;;35.77;17.88;101079.84;6341784;22;45376;-81
2022/08/12 11:36:55;;;;;;;;;6.00;6.00;;;;;35.86;17.57;101085.38;6313401;22;45345;-80
2022/08/12 11:39:22;;;;;;;;;8.00;7.00;;;;;35.95;17.20;101076.16;6341379;22;45421;-81
2022/08/12 11:41:48;;;;;;;;;4.75;4.75;;;;;35.96;17.09;101083.38;6316743;22;45268;-84
2022/08/12 11:44:14;;;;;;;;;9.50;8.75;;;;;36.00;16.97;101073.78;6358249;22;47211;-81
2022/08/12 11:46:41;;;;;;;;;6.25;6.25;;;;;35.99;17.06;101067.44;6333391;22;45390;-83
2022/08/12 11:49:08;;;;;;;;;6.00;4.50;;;;;36.09;17.16;101069.22;6359487;22;45410;-82
2022/08/12 11:51:34;;;;;;;;;6.00;5.75;;;;;36.15;16.94;101060.34;6332260;22;44833;-81
2022/08/12 11:54:00;;;;;;;;;8.00;6.00;;;;;36.22;16.76;101061.38;6357380;22;47418;-81
2022/08/12 11:56:26;;;;;;;;;7.25;6.75;;;;;36.29;16.85;101059.72;6358302;22;45303;-81
2022/08/12 11:58:52;;;;;;;;;6.75;6.50;;;;;36.35;17.02;101059.03;6325259;22;45376;-78
2022/08/12 12:01:17;;;;;;;;;6.25;6.25;;;;;36.40;16.46;101061.28;6352235;22;45457;-79
2022/08/12 12:03:43;;;;;;;;;6.25;6.25;;;;;36.39;16.63;101054.09;6355179;22;45286;-79
2022/08/12 12:06:08;;;;;;;;;6.00;6.00;;;;;36.53;16.29;101058.06;6353222;22;45626;-79
2022/08/12 12:08:34;;;;;;;;;6.00;6.00;;;;;36.57;16.80;101051.25;6322017;22;44839;-79
2022/08/12 12:10:59;;;;;;;;;6.25;5.50;;;;;36.63;16.79;101053.34;6341503;22;45354;-80
2022/08/12 12:13:25;;;;;;;;;5.25;5.25;;;;;36.67;15.87;101056.59;6313173;22;47321;-80
2022/08/12 12:15:51;;;;;;;;;6.00;6.00;;;;;36.60;15.88;101042.69;6341017;22;45310;-80
2022/08/12 12:18:20;;;;;;;;;4.75;4.75;;;;;36.53;16.07;101041.63;6341320;22;45351;-80
2022/08/12 12:20:46;;;;;;;;;5.50;4.25;;;;;36.56;16.36;101046.78;6313117;22;45417;-80
2022/08/12 12:23:11;;;;;;;;;4.00;4.00;;;;;36.63;16.28;101043.22;6341215;22;46335;-80
2022/08/12 12:25:37;;;;;;;;;5.00;5.00;;;;;36.76;16.31;101041.88;6341128;22;45171;-80
2022/08/12 12:28:02;;;;;;;;;6.00;6.00;;;;;36.81;16.35;101037.59;6341535;22;45435;-79
2022/08/12 12:30:27;;;;;;;;;4.75;4.75;;;;;36.85;15.75;101035.34;6341335;22;45175;-79
2022/08/12 12:32:53;;;;;;;;;5.75;5.75;;;;;36.86;15.84;101032.44;6312911;22;47252;-79
2022/08/12 12:35:18;;;;;;;;;6.25;6.25;;;;;36.85;15.64;101027.97;6339432;22;45277;-79
2022/08/12 12:37:56;;;;;;;;;4.50;4.50;;;;;36.89;15.54;101034.00;6312874;22;45368;-79
2022/08/12 12:40:23;;;;;;;;;4.00;4.00;;;;;36.93;15.62;101031.75;6340616;22;45338;-79
2022/08/12 12:42:48;;;;;;;;;4.00;4.00;;;;;36.95;15.12;101027.81;6341378;22;46109;-80
2022/08/12 12:45:15;;;;;;;;;6.75;5.00;;;;;37.07;15.55;101031.94;6341545;22;45169;-79
2022/08/12 12:47:53;;;;;;;;;5.50;4.75;;;;;37.17;14.76;101022.69;6341537;22;45109;-79
2022/08/12 12:50:18;;;;;;;;;7.00;6.00;;;;;37.15;14.87;101024.72;6341406;22;45222;-79
2022/08/12 12:52:44;;;;;;;;;5.75;5.75;;;;;37.11;15.11;101018.75;6341030;22;46033;-79
2022/08/12 12:55:09;;;;;;;;;5.25;5.00;;;;;37.19;15.39;101009.63;6312819;22;45387;-79
2022/08/12 12:57:39;;;;;;;;;7.75;6.00;;;;;37.27;15.15;101013.22;6341689;22;45306;-79
2022/08/12 13:00:14;;;;;;;;;6.50;5.75;;;;;37.33;14.60;101014.41;6340344;22;45459;-79
2022/08/12 13:02:51;;;;;;;;;6.50;5.75;;;;;37.45;15.17;101015.78;6340680;22;46305;-79
2022/08/12 13:05:28;;;;;;;;;5.75;5.50;;;;;37.38;14.94;101006.50;6340376;22;45559;-79
2022/08/12 13:07:56;;;;;;;;;7.00;5.50;;;;;37.31;14.42;101002.75;6341404;22;45255;-81